sensor_id;sensor_type;location;lat;lon;timestamp;P1;durP1;ratioP1;P2;durP2;ratioP2
16892;SDS011;8563;52.242;9.098;2022-10-31T00:00:05;15.57;;;6.70;;
16892;SDS011;8563;52.242;9.098;2022-10-31T00:02:46;11.57;;;7.07;;
16892;SDS011;8563;52.242;9.098;2022-10-31T00:05:20;11.70;;;6.43;;
16892;SDS011;8563;52.242;9.098;2022-10-31T00:07:52;9.63;;;6.30;;
16892;SDS011;8563;52.242;9.098;2022-10-31T00:10:25;16.43;;;7.37;;
16892;SDS011;8563;52.242;9.098;2022-10-31T00:12:57;15.60;;;7.57;;
16892;SDS011;8563;52.242;9.098;2022-10-31T00:15:31;16.80;;;8.50;;
16892;SDS011;8563;52.242;9.098;2022-10-31T00:18:05;15.37;;;7.90;;
16892;SDS011;8563;52.242;9.098;2022-10-31T00:20:40;14.20;;;7.27;;
16892;SDS011;8563;52.242;9.098;2022-10-31T00:23:12;13.33;;;7.47;;
16892;SDS011;8563;52.242;9.098;2022-10-31T00:25:45;9.67;;;7.23;;
16892;SDS011;8563;52.242;9.098;2022-10-31T00:28:17;12.23;;;7.10;;
16892;SDS011;8563;52.242;9.098;2022-10-31T00:30:50;11.37;;;7.30;;
16892;SDS011;8563;52.242;9.098;2022-10-31T00:33:23;15.10;;;8.37;;
16892;SDS011;8563;52.242;9.098;2022-10-31T00:35:57;12.10;;;7.43;;
16892;SDS011;8563;52.242;9.098;2022-10-31T00:38:30;15.53;;;9.40;;
16892;SDS011;8563;52.242;9.098;2022-10-31T00:41:02;12.03;;;7.83;;
16892;SDS011;8563;52.242;9.098;2022-10-31T00:43:35;17.03;;;8.37;;
16892;SDS011;8563;52.242;9.098;2022-10-31T00:46:08;16.50;;;9.07;;
16892;SDS011;8563;52.242;9.098;2022-10-31T00:48:41;13.03;;;7.40;;
16892;SDS011;8563;52.242;9.098;2022-10-31T00:51:15;13.50;;;7.33;;
16892;SDS011;8563;52.242;9.098;2022-10-31T00:53:47;14.53;;;9.43;;
16892;SDS011;8563;52.242;9.098;2022-10-31T00:56:20;12.83;;;7.83;;
16892;SDS011;8563;52.242;9.098;2022-10-31T00:58:53;14.47;;;9.80;;
16892;SDS011;8563;52.242;9.098;2022-10-31T01:01:25;12.37;;;8.77;;
16892;SDS011;8563;52.242;9.098;2022-10-31T01:04:00;16.80;;;9.87;;
16892;SDS011;8563;52.242;9.098;2022-10-31T01:06:34;13.73;;;9.77;;
16892;SDS011;8563;52.242;9.098;2022-10-31T01:09:07;13.90;;;10.30;;
16892;SDS011;8563;52.242;9.098;2022-10-31T01:11:40;12.30;;;9.83;;
16892;SDS011;8563;52.242;9.098;2022-10-31T01:14:13;11.90;;;9.37;;
16892;SDS011;8563;52.242;9.098;2022-10-31T01:16:46;17.97;;;10.47;;
16892;SDS011;8563;52.242;9.098;2022-10-31T01:19:19;15.73;;;11.00;;
16892;SDS011;8563;52.242;9.098;2022-10-31T01:21:54;17.40;;;11.50;;
16892;SDS011;8563;52.242;9.098;2022-10-31T01:24:31;16.27;;;11.03;;
16892;SDS011;8563;52.242;9.098;2022-10-31T01:27:06;19.47;;;12.50;;
16892;SDS011;8563;52.242;9.098;2022-10-31T01:29:38;16.93;;;11.60;;
16892;SDS011;8563;52.242;9.098;2022-10-31T01:32:11;19.63;;;11.80;;
16892;SDS011;8563;52.242;9.098;2022-10-31T01:34:43;21.77;;;13.60;;
16892;SDS011;8563;52.242;9.098;2022-10-31T01:37:19;19.17;;;12.33;;
16892;SDS011;8563;52.242;9.098;2022-10-31T01:39:51;20.53;;;13.20;;
16892;SDS011;8563;52.242;9.098;2022-10-31T01:42:25;16.97;;;13.17;;
16892;SDS011;8563;52.242;9.098;2022-10-31T01:44:59;19.87;;;13.43;;
16892;SDS011;8563;52.242;9.098;2022-10-31T01:47:35;17.23;;;11.90;;
16892;SDS011;8563;52.242;9.098;2022-10-31T01:50:10;18.53;;;12.33;;
16892;SDS011;8563;52.242;9.098;2022-10-31T01:52:45;18.23;;;12.30;;
16892;SDS011;8563;52.242;9.098;2022-10-31T01:55:20;17.17;;;14.23;;
16892;SDS011;8563;52.242;9.098;2022-10-31T01:57:56;18.77;;;13.13;;
16892;SDS011;8563;52.242;9.098;2022-10-31T02:00:29;17.90;;;12.80;;
16892;SDS011;8563;52.242;9.098;2022-10-31T02:03:03;21.10;;;14.07;;
16892;SDS011;8563;52.242;9.098;2022-10-31T02:05:35;18.03;;;12.80;;
16892;SDS011;8563;52.242;9.098;2022-10-31T02:08:11;20.00;;;15.20;;
16892;SDS011;8563;52.242;9.098;2022-10-31T02:10:45;16.70;;;13.07;;
16892;SDS011;8563;52.242;9.098;2022-10-31T02:13:18;19.40;;;13.77;;
16892;SDS011;8563;52.242;9.098;2022-10-31T02:15:54;18.37;;;13.53;;
16892;SDS011;8563;52.242;9.098;2022-10-31T02:18:30;20.33;;;13.83;;
16892;SDS011;8563;52.242;9.098;2022-10-31T02:21:04;21.03;;;13.60;;
16892;SDS011;8563;52.242;9.098;2022-10-31T02:23:53;18.63;;;12.90;;
16892;SDS011;8563;52.242;9.098;2022-10-31T02:26:34;22.93;;;15.00;;
16892;SDS011;8563;52.242;9.098;2022-10-31T02:29:36;17.33;;;13.27;;
16892;SDS011;8563;52.242;9.098;2022-10-31T02:32:17;16.23;;;13.20;;
16892;SDS011;8563;52.242;9.098;2022-10-31T02:34:54;18.00;;;13.17;;
16892;SDS011;8563;52.242;9.098;2022-10-31T02:37:31;24.73;;;14.67;;
16892;SDS011;8563;52.242;9.098;2022-10-31T02:40:05;17.77;;;13.57;;
16892;SDS011;8563;52.242;9.098;2022-10-31T02:43:06;19.03;;;13.77;;
16892;SDS011;8563;52.242;9.098;2022-10-31T02:45:42;22.40;;;15.53;;
16892;SDS011;8563;52.242;9.098;2022-10-31T02:48:19;18.87;;;15.00;;
16892;SDS011;8563;52.242;9.098;2022-10-31T02:50:55;21.93;;;14.50;;
16892;SDS011;8563;52.242;9.098;2022-10-31T02:53:31;24.80;;;15.83;;
16892;SDS011;8563;52.242;9.098;2022-10-31T02:56:05;20.20;;;15.17;;
16892;SDS011;8563;52.242;9.098;2022-10-31T02:58:40;25.73;;;16.20;;
16892;SDS011;8563;52.242;9.098;2022-10-31T03:01:20;22.97;;;15.20;;
16892;SDS011;8563;52.242;9.098;2022-10-31T03:04:00;24.23;;;17.27;;
16892;SDS011;8563;52.242;9.098;2022-10-31T03:06:38;25.60;;;16.50;;
16892;SDS011;8563;52.242;9.098;2022-10-31T03:09:15;20.67;;;16.20;;
16892;SDS011;8563;52.242;9.098;2022-10-31T03:11:52;24.93;;;17.50;;
16892;SDS011;8563;52.242;9.098;2022-10-31T03:14:31;20.77;;;16.90;;
16892;SDS011;8563;52.242;9.098;2022-10-31T03:17:07;20.30;;;15.80;;
16892;SDS011;8563;52.242;9.098;2022-10-31T03:19:45;24.67;;;16.40;;
16892;SDS011;8563;52.242;9.098;2022-10-31T03:22:20;26.03;;;17.63;;
16892;SDS011;8563;52.242;9.098;2022-10-31T03:24:54;23.07;;;15.87;;
16892;SDS011;8563;52.242;9.098;2022-10-31T03:27:29;22.83;;;17.20;;
16892;SDS011;8563;52.242;9.098;2022-10-31T03:30:04;23.90;;;17.17;;
16892;SDS011;8563;52.242;9.098;2022-10-31T03:32:49;24.60;;;17.37;;
16892;SDS011;8563;52.242;9.098;2022-10-31T03:35:27;23.40;;;17.73;;
16892;SDS011;8563;52.242;9.098;2022-10-31T03:38:00;29.03;;;18.07;;
16892;SDS011;8563;52.242;9.098;2022-10-31T03:40:37;29.40;;;19.20;;
16892;SDS011;8563;52.242;9.098;2022-10-31T03:43:13;21.83;;;16.30;;
16892;SDS011;8563;52.242;9.098;2022-10-31T03:45:46;19.37;;;13.60;;
16892;SDS011;8563;52.242;9.098;2022-10-31T03:48:19;19.83;;;15.77;;
16892;SDS011;8563;52.242;9.098;2022-10-31T03:51:00;22.23;;;16.33;;
16892;SDS011;8563;52.242;9.098;2022-10-31T03:53:37;20.67;;;16.50;;
16892;SDS011;8563;52.242;9.098;2022-10-31T03:56:12;24.23;;;17.40;;
16892;SDS011;8563;52.242;9.098;2022-10-31T03:58:47;24.97;;;16.70;;
16892;SDS011;8563;52.242;9.098;2022-10-31T04:01:23;23.50;;;17.20;;
16892;SDS011;8563;52.242;9.098;2022-10-31T04:03:57;23.67;;;18.27;;
16892;SDS011;8563;52.242;9.098;2022-10-31T04:06:31;20.83;;;16.57;;
16892;SDS011;8563;52.242;9.098;2022-10-31T04:09:06;28.30;;;19.17;;
16892;SDS011;8563;52.242;9.098;2022-10-31T04:11:42;24.73;;;16.73;;
16892;SDS011;8563;52.242;9.098;2022-10-31T04:14:36;28.53;;;18.07;;
16892;SDS011;8563;52.242;9.098;2022-10-31T04:17:11;26.50;;;18.73;;
16892;SDS011;8563;52.242;9.098;2022-10-31T04:19:46;24.57;;;17.50;;
16892;SDS011;8563;52.242;9.098;2022-10-31T04:22:20;21.30;;;17.50;;
16892;SDS011;8563;52.242;9.098;2022-10-31T04:24:53;24.80;;;17.67;;
16892;SDS011;8563;52.242;9.098;2022-10-31T04:27:25;25.70;;;18.57;;
16892;SDS011;8563;52.242;9.098;2022-10-31T04:29:58;24.47;;;17.43;;
16892;SDS011;8563;52.242;9.098;2022-10-31T04:32:31;23.07;;;17.13;;
16892;SDS011;8563;52.242;9.098;2022-10-31T04:35:05;30.43;;;19.63;;
16892;SDS011;8563;52.242;9.098;2022-10-31T04:37:39;24.27;;;18.47;;
16892;SDS011;8563;52.242;9.098;2022-10-31T04:40:11;25.43;;;19.13;;
16892;SDS011;8563;52.242;9.098;2022-10-31T04:43:03;29.03;;;19.00;;
16892;SDS011;8563;52.242;9.098;2022-10-31T04:45:36;34.57;;;21.23;;
16892;SDS011;8563;52.242;9.098;2022-10-31T04:48:09;29.60;;;19.20;;
16892;SDS011;8563;52.242;9.098;2022-10-31T04:50:43;22.47;;;16.70;;
16892;SDS011;8563;52.242;9.098;2022-10-31T04:53:20;22.60;;;16.37;;
16892;SDS011;8563;52.242;9.098;2022-10-31T04:56:15;24.17;;;17.70;;
16892;SDS011;8563;52.242;9.098;2022-10-31T04:58:51;22.43;;;17.53;;
16892;SDS011;8563;52.242;9.098;2022-10-31T05:01:24;23.70;;;18.13;;
16892;SDS011;8563;52.242;9.098;2022-10-31T05:03:58;22.43;;;17.23;;
16892;SDS011;8563;52.242;9.098;2022-10-31T05:06:32;18.93;;;16.10;;
16892;SDS011;8563;52.242;9.098;2022-10-31T05:09:06;24.30;;;16.33;;
16892;SDS011;8563;52.242;9.098;2022-10-31T05:11:39;21.03;;;15.43;;
16892;SDS011;8563;52.242;9.098;2022-10-31T05:14:25;19.97;;;15.40;;
16892;SDS011;8563;52.242;9.098;2022-10-31T05:17:20;22.83;;;15.67;;
16892;SDS011;8563;52.242;9.098;2022-10-31T05:20:12;21.97;;;15.23;;
16892;SDS011;8563;52.242;9.098;2022-10-31T05:23:04;19.37;;;14.73;;
16892;SDS011;8563;52.242;9.098;2022-10-31T05:25:39;22.63;;;15.50;;
16892;SDS011;8563;52.242;9.098;2022-10-31T05:28:12;21.53;;;16.97;;
16892;SDS011;8563;52.242;9.098;2022-10-31T05:30:45;21.97;;;17.50;;
16892;SDS011;8563;52.242;9.098;2022-10-31T05:33:19;30.17;;;21.03;;
16892;SDS011;8563;52.242;9.098;2022-10-31T05:36:11;24.73;;;19.73;;
16892;SDS011;8563;52.242;9.098;2022-10-31T05:38:53;29.10;;;20.40;;
16892;SDS011;8563;52.242;9.098;2022-10-31T05:41:33;24.37;;;19.80;;
16892;SDS011;8563;52.242;9.098;2022-10-31T05:44:10;27.90;;;20.43;;
16892;SDS011;8563;52.242;9.098;2022-10-31T05:46:54;25.07;;;19.63;;
16892;SDS011;8563;52.242;9.098;2022-10-31T05:49:47;30.47;;;21.83;;
16892;SDS011;8563;52.242;9.098;2022-10-31T05:52:55;29.90;;;21.40;;
16892;SDS011;8563;52.242;9.098;2022-10-31T05:55:34;28.27;;;19.80;;
16892;SDS011;8563;52.242;9.098;2022-10-31T05:58:17;34.10;;;22.23;;
16892;SDS011;8563;52.242;9.098;2022-10-31T06:01:07;28.70;;;19.80;;
16892;SDS011;8563;52.242;9.098;2022-10-31T06:03:40;23.57;;;19.03;;
16892;SDS011;8563;52.242;9.098;2022-10-31T06:06:13;19.83;;;17.73;;
16892;SDS011;8563;52.242;9.098;2022-10-31T06:08:46;25.37;;;18.80;;
16892;SDS011;8563;52.242;9.098;2022-10-31T06:11:23;23.07;;;18.00;;
16892;SDS011;8563;52.242;9.098;2022-10-31T06:14:09;22.77;;;17.07;;
16892;SDS011;8563;52.242;9.098;2022-10-31T06:17:02;21.10;;;15.47;;
16892;SDS011;8563;52.242;9.098;2022-10-31T06:19:53;20.87;;;15.40;;
16892;SDS011;8563;52.242;9.098;2022-10-31T06:22:29;25.23;;;16.13;;
16892;SDS011;8563;52.242;9.098;2022-10-31T06:25:01;20.30;;;16.67;;
16892;SDS011;8563;52.242;9.098;2022-10-31T06:27:38;22.77;;;16.87;;
16892;SDS011;8563;52.242;9.098;2022-10-31T06:30:18;21.77;;;17.17;;
16892;SDS011;8563;52.242;9.098;2022-10-31T06:32:51;21.33;;;16.40;;
16892;SDS011;8563;52.242;9.098;2022-10-31T06:35:24;21.00;;;15.57;;
16892;SDS011;8563;52.242;9.098;2022-10-31T06:37:56;22.10;;;15.83;;
16892;SDS011;8563;52.242;9.098;2022-10-31T06:40:43;19.63;;;15.03;;
16892;SDS011;8563;52.242;9.098;2022-10-31T06:43:26;21.07;;;14.93;;
16892;SDS011;8563;52.242;9.098;2022-10-31T06:46:19;19.03;;;14.60;;
16892;SDS011;8563;52.242;9.098;2022-10-31T06:49:04;25.97;;;16.93;;
16892;SDS011;8563;52.242;9.098;2022-10-31T06:51:53;21.80;;;16.90;;
16892;SDS011;8563;52.242;9.098;2022-10-31T06:54:26;25.33;;;17.63;;
16892;SDS011;8563;52.242;9.098;2022-10-31T06:56:59;22.30;;;17.40;;
16892;SDS011;8563;52.242;9.098;2022-10-31T06:59:32;24.60;;;16.97;;
16892;SDS011;8563;52.242;9.098;2022-10-31T07:02:20;23.20;;;17.57;;
16892;SDS011;8563;52.242;9.098;2022-10-31T07:04:54;24.60;;;19.33;;
16892;SDS011;8563;52.242;9.098;2022-10-31T07:07:27;25.20;;;17.27;;
16892;SDS011;8563;52.242;9.098;2022-10-31T07:10:00;20.93;;;16.43;;
16892;SDS011;8563;52.242;9.098;2022-10-31T07:12:54;21.83;;;16.80;;
16892;SDS011;8563;52.242;9.098;2022-10-31T07:15:27;24.10;;;17.97;;
16892;SDS011;8563;52.242;9.098;2022-10-31T07:18:04;19.93;;;16.77;;
16892;SDS011;8563;52.242;9.098;2022-10-31T07:20:38;19.77;;;16.43;;
16892;SDS011;8563;52.242;9.098;2022-10-31T07:23:11;24.70;;;17.37;;
16892;SDS011;8563;52.242;9.098;2022-10-31T07:25:46;19.10;;;15.30;;
16892;SDS011;8563;52.242;9.098;2022-10-31T07:28:23;20.13;;;14.77;;
16892;SDS011;8563;52.242;9.098;2022-10-31T07:30:57;20.60;;;15.17;;
16892;SDS011;8563;52.242;9.098;2022-10-31T07:33:31;19.30;;;15.93;;
16892;SDS011;8563;52.242;9.098;2022-10-31T07:36:22;18.47;;;15.17;;
16892;SDS011;8563;52.242;9.098;2022-10-31T07:38:57;22.80;;;15.07;;
16892;SDS011;8563;52.242;9.098;2022-10-31T07:41:30;21.00;;;16.50;;
16892;SDS011;8563;52.242;9.098;2022-10-31T07:44:03;21.20;;;15.40;;
16892;SDS011;8563;52.242;9.098;2022-10-31T07:46:56;18.53;;;14.90;;
16892;SDS011;8563;52.242;9.098;2022-10-31T07:49:49;17.07;;;15.00;;
16892;SDS011;8563;52.242;9.098;2022-10-31T07:52:40;19.37;;;15.03;;
16892;SDS011;8563;52.242;9.098;2022-10-31T07:55:37;17.07;;;14.10;;
16892;SDS011;8563;52.242;9.098;2022-10-31T07:58:11;18.03;;;14.50;;
16892;SDS011;8563;52.242;9.098;2022-10-31T08:00:45;19.53;;;15.83;;
16892;SDS011;8563;52.242;9.098;2022-10-31T08:03:23;21.53;;;16.27;;
16892;SDS011;8563;52.242;9.098;2022-10-31T08:06:15;17.23;;;15.00;;
16892;SDS011;8563;52.242;9.098;2022-10-31T08:09:14;18.33;;;14.27;;
16892;SDS011;8563;52.242;9.098;2022-10-31T08:11:48;21.13;;;15.23;;
16892;SDS011;8563;52.242;9.098;2022-10-31T08:14:21;17.07;;;14.63;;
16892;SDS011;8563;52.242;9.098;2022-10-31T08:16:55;16.00;;;14.27;;
16892;SDS011;8563;52.242;9.098;2022-10-31T08:19:34;19.00;;;14.00;;
16892;SDS011;8563;52.242;9.098;2022-10-31T08:22:08;17.70;;;13.67;;
16892;SDS011;8563;52.242;9.098;2022-10-31T08:24:40;21.57;;;14.17;;
16892;SDS011;8563;52.242;9.098;2022-10-31T08:27:14;20.90;;;15.10;;
16892;SDS011;8563;52.242;9.098;2022-10-31T08:29:47;19.57;;;15.90;;
16892;SDS011;8563;52.242;9.098;2022-10-31T08:32:19;19.13;;;15.50;;
16892;SDS011;8563;52.242;9.098;2022-10-31T08:35:01;20.30;;;15.90;;
16892;SDS011;8563;52.242;9.098;2022-10-31T08:37:53;20.30;;;15.47;;
16892;SDS011;8563;52.242;9.098;2022-10-31T08:40:30;17.40;;;14.20;;
16892;SDS011;8563;52.242;9.098;2022-10-31T08:43:08;22.07;;;16.87;;
16892;SDS011;8563;52.242;9.098;2022-10-31T08:45:43;23.60;;;18.07;;
16892;SDS011;8563;52.242;9.098;2022-10-31T08:48:22;19.30;;;16.47;;
16892;SDS011;8563;52.242;9.098;2022-10-31T08:50:56;22.13;;;17.13;;
16892;SDS011;8563;52.242;9.098;2022-10-31T08:53:31;21.50;;;18.27;;
16892;SDS011;8563;52.242;9.098;2022-10-31T08:56:32;24.40;;;19.37;;
16892;SDS011;8563;52.242;9.098;2022-10-31T08:59:08;25.30;;;18.60;;
16892;SDS011;8563;52.242;9.098;2022-10-31T09:01:58;28.83;;;19.47;;
16892;SDS011;8563;52.242;9.098;2022-10-31T09:04:33;27.00;;;19.33;;
16892;SDS011;8563;52.242;9.098;2022-10-31T09:07:06;28.57;;;20.47;;
16892;SDS011;8563;52.242;9.098;2022-10-31T09:09:40;26.23;;;20.23;;
16892;SDS011;8563;52.242;9.098;2022-10-31T09:12:13;22.57;;;18.37;;
16892;SDS011;8563;52.242;9.098;2022-10-31T09:15:05;25.13;;;19.90;;
16892;SDS011;8563;52.242;9.098;2022-10-31T09:17:46;26.07;;;18.53;;
16892;SDS011;8563;52.242;9.098;2022-10-31T09:20:41;27.57;;;18.33;;
16892;SDS011;8563;52.242;9.098;2022-10-31T09:23:15;24.77;;;17.37;;
16892;SDS011;8563;52.242;9.098;2022-10-31T09:25:50;21.33;;;17.13;;
16892;SDS011;8563;52.242;9.098;2022-10-31T09:28:45;23.20;;;18.87;;
16892;SDS011;8563;52.242;9.098;2022-10-31T09:31:19;24.53;;;18.60;;
16892;SDS011;8563;52.242;9.098;2022-10-31T09:34:05;25.07;;;18.70;;
16892;SDS011;8563;52.242;9.098;2022-10-31T09:36:41;29.93;;;20.07;;
16892;SDS011;8563;52.242;9.098;2022-10-31T09:39:24;26.47;;;19.33;;
16892;SDS011;8563;52.242;9.098;2022-10-31T09:42:14;23.47;;;20.00;;
16892;SDS011;8563;52.242;9.098;2022-10-31T09:44:51;28.00;;;20.97;;
16892;SDS011;8563;52.242;9.098;2022-10-31T09:47:43;26.27;;;19.43;;
16892;SDS011;8563;52.242;9.098;2022-10-31T09:50:38;22.83;;;17.57;;
16892;SDS011;8563;52.242;9.098;2022-10-31T09:53:33;22.20;;;18.43;;
16892;SDS011;8563;52.242;9.098;2022-10-31T09:56:09;24.53;;;17.63;;
16892;SDS011;8563;52.242;9.098;2022-10-31T09:58:45;24.93;;;18.70;;
16892;SDS011;8563;52.242;9.098;2022-10-31T10:01:29;22.60;;;17.73;;
16892;SDS011;8563;52.242;9.098;2022-10-31T10:04:04;20.90;;;17.20;;
16892;SDS011;8563;52.242;9.098;2022-10-31T10:07:05;27.27;;;21.37;;
16892;SDS011;8563;52.242;9.098;2022-10-31T10:09:47;27.97;;;20.00;;
16892;SDS011;8563;52.242;9.098;2022-10-31T10:12:41;25.90;;;18.40;;
16892;SDS011;8563;52.242;9.098;2022-10-31T10:18:14;27.13;;;19.13;;
16892;SDS011;8563;52.242;9.098;2022-10-31T10:20:54;27.87;;;19.37;;
16892;SDS011;8563;52.242;9.098;2022-10-31T10:23:35;31.07;;;19.03;;
16892;SDS011;8563;52.242;9.098;2022-10-31T10:26:12;26.50;;;18.43;;
16892;SDS011;8563;52.242;9.098;2022-10-31T10:28:46;25.57;;;17.93;;
16892;SDS011;8563;52.242;9.098;2022-10-31T10:31:20;28.63;;;18.57;;
16892;SDS011;8563;52.242;9.098;2022-10-31T10:36:44;22.97;;;16.43;;
16892;SDS011;8563;52.242;9.098;2022-10-31T10:39:18;25.27;;;17.00;;
16892;SDS011;8563;52.242;9.098;2022-10-31T10:41:52;24.67;;;15.90;;
16892;SDS011;8563;52.242;9.098;2022-10-31T10:44:39;24.40;;;16.93;;
16892;SDS011;8563;52.242;9.098;2022-10-31T10:47:31;26.83;;;17.43;;
16892;SDS011;8563;52.242;9.098;2022-10-31T10:50:10;25.73;;;15.97;;
16892;SDS011;8563;52.242;9.098;2022-10-31T10:52:52;19.63;;;15.27;;
16892;SDS011;8563;52.242;9.098;2022-10-31T10:55:30;24.03;;;15.73;;
16892;SDS011;8563;52.242;9.098;2022-10-31T10:58:07;20.70;;;14.80;;
16892;SDS011;8563;52.242;9.098;2022-10-31T11:00:40;19.90;;;14.40;;
16892;SDS011;8563;52.242;9.098;2022-10-31T11:03:14;20.80;;;14.47;;
16892;SDS011;8563;52.242;9.098;2022-10-31T11:05:48;23.83;;;14.60;;
16892;SDS011;8563;52.242;9.098;2022-10-31T11:08:27;21.87;;;13.87;;
16892;SDS011;8563;52.242;9.098;2022-10-31T11:11:01;24.13;;;13.65;;
16892;SDS011;8563;52.242;9.098;2022-10-31T11:13:34;23.40;;;13.00;;
16892;SDS011;8563;52.242;9.098;2022-10-31T11:16:08;17.57;;;12.03;;
16892;SDS011;8563;52.242;9.098;2022-10-31T11:18:41;19.17;;;11.63;;
16892;SDS011;8563;52.242;9.098;2022-10-31T11:21:19;20.17;;;12.33;;
16892;SDS011;8563;52.242;9.098;2022-10-31T11:24:02;15.77;;;11.27;;
16892;SDS011;8563;52.242;9.098;2022-10-31T11:26:35;14.63;;;10.63;;
16892;SDS011;8563;52.242;9.098;2022-10-31T11:29:11;14.33;;;10.77;;
16892;SDS011;8563;52.242;9.098;2022-10-31T11:31:45;17.17;;;9.63;;
16892;SDS011;8563;52.242;9.098;2022-10-31T11:34:26;18.63;;;10.00;;
16892;SDS011;8563;52.242;9.098;2022-10-31T11:37:02;13.85;;;9.02;;
16892;SDS011;8563;52.242;9.098;2022-10-31T11:39:38;13.88;;;7.78;;
16892;SDS011;8563;52.242;9.098;2022-10-31T11:42:12;12.57;;;7.63;;
16892;SDS011;8563;52.242;9.098;2022-10-31T11:44:45;11.38;;;7.60;;
16892;SDS011;8563;52.242;9.098;2022-10-31T11:47:20;10.45;;;6.95;;
16892;SDS011;8563;52.242;9.098;2022-10-31T11:49:53;11.18;;;6.60;;
16892;SDS011;8563;52.242;9.098;2022-10-31T11:52:28;11.10;;;5.97;;
16892;SDS011;8563;52.242;9.098;2022-10-31T11:55:15;8.70;;;5.88;;
16892;SDS011;8563;52.242;9.098;2022-10-31T11:57:49;7.82;;;5.25;;
16892;SDS011;8563;52.242;9.098;2022-10-31T12:00:23;8.65;;;5.22;;
16892;SDS011;8563;52.242;9.098;2022-10-31T12:03:10;8.80;;;5.75;;
16892;SDS011;8563;52.242;9.098;2022-10-31T12:05:44;11.15;;;5.72;;
16892;SDS011;8563;52.242;9.098;2022-10-31T12:08:17;9.07;;;5.77;;
16892;SDS011;8563;52.242;9.098;2022-10-31T12:10:53;8.35;;;5.80;;
16892;SDS011;8563;52.242;9.098;2022-10-31T12:13:31;8.48;;;5.30;;
16892;SDS011;8563;52.242;9.098;2022-10-31T12:16:08;11.15;;;6.68;;
16892;SDS011;8563;52.242;9.098;2022-10-31T12:18:53;11.03;;;6.07;;
16892;SDS011;8563;52.242;9.098;2022-10-31T12:24:20;10.90;;;6.03;;
16892;SDS011;8563;52.242;9.098;2022-10-31T12:26:57;10.05;;;5.90;;
16892;SDS011;8563;52.242;9.098;2022-10-31T12:29:40;10.90;;;6.05;;
16892;SDS011;8563;52.242;9.098;2022-10-31T12:32:19;8.35;;;5.80;;
16892;SDS011;8563;52.242;9.098;2022-10-31T12:34:59;10.52;;;6.30;;
16892;SDS011;8563;52.242;9.098;2022-10-31T12:37:38;12.98;;;6.22;;
16892;SDS011;8563;52.242;9.098;2022-10-31T12:43:12;8.32;;;5.22;;
16892;SDS011;8563;52.242;9.098;2022-10-31T12:45:50;10.82;;;5.22;;
16892;SDS011;8563;52.242;9.098;2022-10-31T12:48:28;10.05;;;5.78;;
16892;SDS011;8563;52.242;9.098;2022-10-31T12:51:08;8.73;;;5.40;;
16892;SDS011;8563;52.242;9.098;2022-10-31T12:53:45;8.68;;;5.05;;
16892;SDS011;8563;52.242;9.098;2022-10-31T12:56:25;6.38;;;4.40;;
16892;SDS011;8563;52.242;9.098;2022-10-31T12:59:01;8.50;;;5.00;;
16892;SDS011;8563;52.242;9.098;2022-10-31T13:01:36;6.68;;;4.85;;
16892;SDS011;8563;52.242;9.098;2022-10-31T13:04:12;6.57;;;4.57;;
16892;SDS011;8563;52.242;9.098;2022-10-31T13:06:47;7.13;;;4.38;;
16892;SDS011;8563;52.242;9.098;2022-10-31T13:09:22;8.40;;;5.30;;
16892;SDS011;8563;52.242;9.098;2022-10-31T13:11:58;7.20;;;4.53;;
16892;SDS011;8563;52.242;9.098;2022-10-31T13:14:36;6.28;;;4.88;;
16892;SDS011;8563;52.242;9.098;2022-10-31T13:17:09;7.90;;;4.72;;
16892;SDS011;8563;52.242;9.098;2022-10-31T13:19:46;9.73;;;5.00;;
16892;SDS011;8563;52.242;9.098;2022-10-31T13:22:20;15.25;;;5.72;;
16892;SDS011;8563;52.242;9.098;2022-10-31T13:24:56;7.80;;;5.40;;
16892;SDS011;8563;52.242;9.098;2022-10-31T13:27:30;6.77;;;5.03;;
16892;SDS011;8563;52.242;9.098;2022-10-31T13:30:05;8.40;;;5.15;;
16892;SDS011;8563;52.242;9.098;2022-10-31T13:32:40;6.40;;;4.55;;
16892;SDS011;8563;52.242;9.098;2022-10-31T13:35:14;6.95;;;4.00;;
16892;SDS011;8563;52.242;9.098;2022-10-31T13:37:49;7.43;;;5.10;;
16892;SDS011;8563;52.242;9.098;2022-10-31T13:40:26;7.90;;;4.30;;
16892;SDS011;8563;52.242;9.098;2022-10-31T13:43:05;6.38;;;3.90;;
16892;SDS011;8563;52.242;9.098;2022-10-31T13:45:48;7.60;;;4.00;;
16892;SDS011;8563;52.242;9.098;2022-10-31T13:48:34;8.05;;;4.40;;
16892;SDS011;8563;52.242;9.098;2022-10-31T13:51:08;7.78;;;3.83;;
16892;SDS011;8563;52.242;9.098;2022-10-31T13:53:44;9.20;;;3.53;;
16892;SDS011;8563;52.242;9.098;2022-10-31T13:56:21;6.45;;;3.90;;
16892;SDS011;8563;52.242;9.098;2022-10-31T13:59:02;7.00;;;3.47;;
16892;SDS011;8563;52.242;9.098;2022-10-31T14:01:36;7.90;;;4.03;;
16892;SDS011;8563;52.242;9.098;2022-10-31T14:04:14;6.93;;;3.97;;
16892;SDS011;8563;52.242;9.098;2022-10-31T14:06:50;7.85;;;4.28;;
16892;SDS011;8563;52.242;9.098;2022-10-31T14:09:26;6.65;;;4.00;;
16892;SDS011;8563;52.242;9.098;2022-10-31T14:12:00;6.57;;;4.05;;
16892;SDS011;8563;52.242;9.098;2022-10-31T14:14:35;5.00;;;3.60;;
16892;SDS011;8563;52.242;9.098;2022-10-31T14:17:26;7.25;;;4.38;;
16892;SDS011;8563;52.242;9.098;2022-10-31T14:22:51;8.52;;;5.30;;
16892;SDS011;8563;52.242;9.098;2022-10-31T14:25:31;9.30;;;4.68;;
16892;SDS011;8563;52.242;9.098;2022-10-31T14:28:17;6.35;;;5.13;;
16892;SDS011;8563;52.242;9.098;2022-10-31T14:30:51;9.02;;;5.65;;
16892;SDS011;8563;52.242;9.098;2022-10-31T14:33:26;11.52;;;6.40;;
16892;SDS011;8563;52.242;9.098;2022-10-31T14:36:00;8.37;;;5.10;;
16892;SDS011;8563;52.242;9.098;2022-10-31T14:38:40;11.40;;;6.45;;
16892;SDS011;8563;52.242;9.098;2022-10-31T14:46:54;10.45;;;5.60;;
16892;SDS011;8563;52.242;9.098;2022-10-31T14:49:38;10.32;;;5.82;;
16892;SDS011;8563;52.242;9.098;2022-10-31T14:52:13;10.75;;;5.97;;
16892;SDS011;8563;52.242;9.098;2022-10-31T14:54:48;13.07;;;6.37;;
16892;SDS011;8563;52.242;9.098;2022-10-31T14:57:23;11.15;;;6.43;;
16892;SDS011;8563;52.242;9.098;2022-10-31T14:59:58;11.13;;;5.70;;
16892;SDS011;8563;52.242;9.098;2022-10-31T15:02:33;9.40;;;5.75;;
16892;SDS011;8563;52.242;9.098;2022-10-31T15:05:11;6.63;;;5.10;;
16892;SDS011;8563;52.242;9.098;2022-10-31T15:07:48;13.73;;;6.05;;
16892;SDS011;8563;52.242;9.098;2022-10-31T15:10:22;8.67;;;5.77;;
16892;SDS011;8563;52.242;9.098;2022-10-31T15:12:55;9.37;;;5.70;;
16892;SDS011;8563;52.242;9.098;2022-10-31T15:15:28;9.93;;;5.97;;
16892;SDS011;8563;52.242;9.098;2022-10-31T15:18:03;9.73;;;5.73;;
16892;SDS011;8563;52.242;9.098;2022-10-31T15:20:44;9.13;;;6.67;;
16892;SDS011;8563;52.242;9.098;2022-10-31T15:23:20;13.77;;;7.13;;
16892;SDS011;8563;52.242;9.098;2022-10-31T15:26:03;16.27;;;7.43;;
16892;SDS011;8563;52.242;9.098;2022-10-31T15:28:36;12.93;;;7.70;;
16892;SDS011;8563;52.242;9.098;2022-10-31T15:31:12;13.17;;;8.17;;
16892;SDS011;8563;52.242;9.098;2022-10-31T15:33:46;11.83;;;7.07;;
16892;SDS011;8563;52.242;9.098;2022-10-31T15:36:22;14.97;;;8.07;;
16892;SDS011;8563;52.242;9.098;2022-10-31T15:38:55;14.73;;;7.53;;
16892;SDS011;8563;52.242;9.098;2022-10-31T15:41:30;14.77;;;7.73;;
16892;SDS011;8563;52.242;9.098;2022-10-31T15:44:06;14.33;;;8.07;;
16892;SDS011;8563;52.242;9.098;2022-10-31T15:46:39;10.93;;;7.83;;
16892;SDS011;8563;52.242;9.098;2022-10-31T15:49:16;15.80;;;8.80;;
16892;SDS011;8563;52.242;9.098;2022-10-31T15:51:52;15.37;;;8.07;;
16892;SDS011;8563;52.242;9.098;2022-10-31T15:54:25;17.13;;;9.10;;
16892;SDS011;8563;52.242;9.098;2022-10-31T15:56:57;14.23;;;8.90;;
16892;SDS011;8563;52.242;9.098;2022-10-31T15:59:30;13.13;;;8.40;;
16892;SDS011;8563;52.242;9.098;2022-10-31T16:02:07;15.23;;;9.40;;